createdAt,value
2022-11-15T00:01:35.089Z,101120
2022-11-15T00:06:35.057Z,101100
2022-11-15T00:11:35.054Z,101100
2022-11-15T00:16:35.082Z,101110
2022-11-15T00:21:35.064Z,101100
2022-11-15T00:26:35.095Z,101100
2022-11-15T00:31:35.077Z,101100
2022-11-15T00:36:35.073Z,101090
2022-11-15T00:41:35.079Z,101090
2022-11-15T00:46:35.091Z,101070
2022-11-15T00:51:35.081Z,101070
2022-11-15T00:56:35.108Z,101080
2022-11-15T01:01:35.085Z,101070
2022-11-15T01:06:35.092Z,101070
2022-11-15T01:11:35.089Z,101070
2022-11-15T01:16:35.110Z,101070
2022-11-15T01:21:35.101Z,101060
2022-11-15T01:26:35.103Z,101060
2022-11-15T01:31:35.128Z,101050
2022-11-15T01:36:35.108Z,101060
2022-11-15T01:41:35.109Z,101050
2022-11-15T01:46:35.127Z,101040
2022-11-15T01:51:35.116Z,101030
2022-11-15T01:56:35.130Z,101020
2022-11-15T02:01:35.133Z,101020
2022-11-15T02:06:35.119Z,101030
2022-11-15T02:11:35.126Z,101020
2022-11-15T02:16:35.142Z,101030
2022-11-15T02:21:35.136Z,101020
2022-11-15T02:26:35.133Z,101010
2022-11-15T02:31:35.161Z,101010
2022-11-15T02:36:35.140Z,101000
2022-11-15T02:41:35.152Z,101000
2022-11-15T02:46:35.157Z,100990
2022-11-15T02:51:35.149Z,100990
2022-11-15T02:56:35.148Z,100980
2022-11-15T03:01:35.185Z,100970
2022-11-15T03:06:35.160Z,100960
2022-11-15T03:11:35.157Z,100960
2022-11-15T03:16:35.173Z,100960
2022-11-15T03:21:35.169Z,100950
2022-11-15T03:26:35.168Z,100950
2022-11-15T03:31:35.181Z,100940
2022-11-15T03:36:35.176Z,100940
2022-11-15T03:41:35.181Z,100930
2022-11-15T03:46:35.192Z,100930
2022-11-15T03:51:35.186Z,100940
2022-11-15T03:56:35.186Z,100930
2022-11-15T04:01:35.271Z,100950
2022-11-15T04:06:35.197Z,100950
2022-11-15T04:11:35.202Z,100940
2022-11-15T04:16:39.523Z,100940
2022-11-15T04:21:35.196Z,100950
2022-11-15T04:26:35.199Z,100940
2022-11-15T04:31:35.230Z,100940
2022-11-15T04:36:35.209Z,100940
2022-11-15T04:41:35.207Z,100940
2022-11-15T04:46:35.226Z,100940
2022-11-15T04:51:35.214Z,100940
2022-11-15T04:56:35.219Z,100930
2022-11-15T05:01:36.800Z,100930
2022-11-15T05:06:35.221Z,100930
2022-11-15T05:11:35.228Z,100930
2022-11-15T05:16:35.257Z,100920
2022-11-15T05:21:35.235Z,100920
2022-11-15T05:26:35.231Z,100930
2022-11-15T05:31:35.261Z,100930
2022-11-15T05:36:35.238Z,100930
2022-11-15T05:41:35.255Z,100920
2022-11-15T05:46:35.257Z,100930
2022-11-15T05:51:35.245Z,100930
2022-11-15T05:56:35.248Z,100930
2022-11-15T06:01:35.283Z,100920
2022-11-15T06:06:35.256Z,100930
2022-11-15T06:11:35.262Z,100940
2022-11-15T06:16:35.277Z,100950
2022-11-15T06:21:35.271Z,100950
2022-11-15T06:26:35.268Z,100960
2022-11-15T06:31:35.303Z,100960
2022-11-15T06:36:35.283Z,100960
2022-11-15T06:41:35.290Z,100960
2022-11-15T06:46:35.296Z,100970
2022-11-15T06:51:35.281Z,100960
2022-11-15T06:56:35.297Z,100960
2022-11-15T07:01:35.358Z,100960
2022-11-15T07:06:35.297Z,100970
2022-11-15T07:11:35.298Z,100980
2022-11-15T07:16:35.312Z,100980
2022-11-15T07:21:35.307Z,100990
2022-11-15T07:26:35.319Z,100990
2022-11-15T07:31:35.329Z,100990
2022-11-15T07:36:35.314Z,100990
2022-11-15T07:41:35.321Z,101000
2022-11-15T07:46:35.327Z,100990
2022-11-15T07:51:35.336Z,100990
2022-11-15T07:56:35.319Z,100990
2022-11-15T08:01:35.387Z,100990
2022-11-15T08:06:35.338Z,100990
2022-11-15T08:11:35.334Z,100990
2022-11-15T08:16:35.414Z,101000
2022-11-15T08:21:35.418Z,100990
2022-11-15T08:26:35.341Z,100980
2022-11-15T08:31:35.362Z,100990
2022-11-15T08:36:44.660Z,100970
2022-11-15T08:41:35.350Z,100980
2022-11-15T08:46:35.369Z,100980
2022-11-15T08:51:35.356Z,100970
2022-11-15T08:56:35.361Z,100970
2022-11-15T09:01:35.446Z,100970
2022-11-15T09:06:38.630Z,100970
2022-11-15T09:11:35.367Z,100960
2022-11-15T09:16:35.397Z,100960
2022-11-15T09:21:35.371Z,100960
2022-11-15T09:26:35.383Z,100960
2022-11-15T09:31:35.398Z,100960
2022-11-15T09:36:35.383Z,100960
2022-11-15T09:41:35.428Z,100960
2022-11-15T09:46:35.407Z,100950
2022-11-15T09:51:35.389Z,100940
2022-11-15T09:56:35.400Z,100940
2022-11-15T10:01:35.480Z,100940
2022-11-15T10:06:35.400Z,100940
2022-11-15T10:11:38.115Z,100930
2022-11-15T10:16:35.420Z,100920
2022-11-15T10:21:35.409Z,100920
2022-11-15T10:26:35.420Z,100910
2022-11-15T10:31:35.460Z,100910
2022-11-15T10:36:35.421Z,100910
2022-11-15T10:41:35.421Z,100910
2022-11-15T10:46:46.760Z,100900
2022-11-15T10:51:35.440Z,100900
2022-11-15T10:56:35.427Z,100890
2022-11-15T11:01:35.478Z,100890
2022-11-15T11:06:35.440Z,100880
2022-11-15T11:11:35.436Z,100870
2022-11-15T11:16:38.830Z,100850
2022-11-15T11:21:39.650Z,100850
2022-11-15T11:26:35.450Z,100860
2022-11-15T11:31:35.473Z,100840
2022-11-15T11:36:35.456Z,100850
2022-11-15T11:41:35.530Z,100840
2022-11-15T11:46:35.474Z,100840
2022-11-15T11:51:35.468Z,100830
2022-11-15T11:56:35.469Z,100820
2022-11-15T12:01:35.558Z,100830
2022-11-15T12:06:35.467Z,100820
2022-11-15T12:11:35.472Z,100820
2022-11-15T12:16:35.483Z,100820
2022-11-15T12:21:35.485Z,100810
2022-11-15T12:26:35.483Z,100800
2022-11-15T12:31:35.508Z,100800
2022-11-15T12:36:35.485Z,100780
2022-11-15T12:41:35.495Z,100770
2022-11-15T12:46:35.501Z,100750
2022-11-15T12:51:35.501Z,100740
2022-11-15T12:56:35.510Z,100730
2022-11-15T13:01:35.615Z,100730
2022-11-15T13:06:35.503Z,100720
2022-11-15T13:11:35.511Z,100720
2022-11-15T13:16:35.528Z,100710
2022-11-15T13:21:35.512Z,100700
2022-11-15T13:26:35.521Z,100690
2022-11-15T13:31:35.542Z,100690
2022-11-15T13:36:35.520Z,100680
2022-11-15T13:41:35.531Z,100680
2022-11-15T13:46:35.560Z,100660
2022-11-15T13:51:35.547Z,100650
2022-11-15T13:56:35.530Z,100660
2022-11-15T14:01:35.613Z,100660
2022-11-15T14:06:35.542Z,100650
2022-11-15T14:11:35.553Z,100650
2022-11-15T14:16:35.572Z,100640
2022-11-15T14:21:35.556Z,100630
2022-11-15T14:26:35.575Z,100630
2022-11-15T14:31:38.657Z,100620
2022-11-15T14:36:35.557Z,100620
2022-11-15T14:41:35.567Z,100610
2022-11-15T14:46:35.579Z,100600
2022-11-15T14:51:35.572Z,100600
2022-11-15T14:56:35.570Z,100590
2022-11-15T15:01:35.584Z,100580
2022-11-15T15:06:35.647Z,100570
2022-11-15T15:11:35.579Z,100560
2022-11-15T15:16:35.601Z,100550
2022-11-15T15:21:37.658Z,100550
2022-11-15T15:26:35.585Z,100530
2022-11-15T15:31:35.615Z,100530
2022-11-15T15:36:35.592Z,100510
2022-11-15T15:41:35.608Z,100510
2022-11-15T15:46:35.620Z,100500
2022-11-15T15:51:35.601Z,100500
2022-11-15T15:56:35.607Z,100490
2022-11-15T16:01:35.705Z,100480
2022-11-15T16:06:35.616Z,100470
2022-11-15T16:11:35.619Z,100460
2022-11-15T16:16:35.627Z,100460
2022-11-15T16:21:35.626Z,100460
2022-11-15T16:26:35.620Z,100450
2022-11-15T16:31:35.644Z,100450
2022-11-15T16:36:35.636Z,100450
2022-11-15T16:41:35.629Z,100450
2022-11-15T16:46:35.646Z,100430
2022-11-15T16:51:35.639Z,100440
2022-11-15T16:56:35.637Z,100430
2022-11-15T17:01:35.659Z,100420
2022-11-15T17:06:35.646Z,100420
2022-11-15T17:11:35.651Z,100420
2022-11-15T17:16:35.661Z,100410
2022-11-15T17:21:35.650Z,100410
2022-11-15T17:26:40.353Z,100410
2022-11-15T17:31:35.682Z,100410
2022-11-15T17:36:35.666Z,100410
2022-11-15T17:41:35.670Z,100410
2022-11-15T17:46:35.689Z,100410
2022-11-15T17:51:35.673Z,100400
2022-11-15T17:56:35.675Z,100400
2022-11-15T18:01:35.785Z,100410
2022-11-15T18:06:35.682Z,100420
2022-11-15T18:11:35.692Z,100410
2022-11-15T18:16:35.701Z,100410
2022-11-15T18:21:35.690Z,100400
2022-11-15T18:26:35.692Z,100400
2022-11-15T18:31:35.719Z,100390
2022-11-15T18:36:35.704Z,100380
2022-11-15T18:41:35.712Z,100380
2022-11-15T18:46:35.721Z,100380
2022-11-15T18:51:35.713Z,100370
2022-11-15T18:56:35.709Z,100370
2022-11-15T19:01:35.847Z,100370
2022-11-15T19:06:35.721Z,100370
2022-11-15T19:11:35.733Z,100370
2022-11-15T19:16:35.732Z,100360
2022-11-15T19:21:35.723Z,100360
2022-11-15T19:26:35.738Z,100360
2022-11-15T19:31:35.752Z,100350
2022-11-15T19:36:35.731Z,100340
2022-11-15T19:41:35.738Z,100340
2022-11-15T19:46:35.749Z,100350
2022-11-15T19:51:35.747Z,100350
2022-11-15T19:56:35.764Z,100350
2022-11-15T20:01:35.950Z,100350
2022-11-15T20:06:35.754Z,100330
2022-11-15T20:11:35.755Z,100330
2022-11-15T20:16:35.777Z,100320
2022-11-15T20:21:35.769Z,100320
2022-11-15T20:26:35.765Z,100310
2022-11-15T20:31:35.797Z,100310
2022-11-15T20:36:35.781Z,100310
2022-11-15T20:41:35.776Z,100310
2022-11-15T20:46:35.789Z,100300
2022-11-15T20:51:35.774Z,100300
2022-11-15T20:56:35.790Z,100300
2022-11-15T21:01:35.902Z,100290
2022-11-15T21:06:35.787Z,100290
2022-11-15T21:11:35.787Z,100290
2022-11-15T21:16:35.800Z,100280
2022-11-15T21:21:35.800Z,100270
2022-11-15T21:26:35.809Z,100270
2022-11-15T21:31:35.818Z,100280
2022-11-15T21:36:35.816Z,100270
2022-11-15T21:41:35.815Z,100260
2022-11-15T21:46:35.820Z,100250
2022-11-15T21:51:35.820Z,100240
2022-11-15T21:56:35.823Z,100230
2022-11-15T22:01:35.905Z,100230
2022-11-15T22:06:35.824Z,100230
2022-11-15T22:11:35.834Z,100230
2022-11-15T22:16:35.837Z,100230
2022-11-15T22:21:35.837Z,100230
2022-11-15T22:26:35.844Z,100220
2022-11-15T22:31:35.861Z,100220
2022-11-15T22:36:46.802Z,100220
2022-11-15T22:41:35.844Z,100210
2022-11-15T22:46:35.865Z,100200
2022-11-15T22:51:35.856Z,100200
2022-11-15T22:56:35.856Z,100190
2022-11-15T23:01:35.867Z,100180
2022-11-15T23:06:35.856Z,100180
2022-11-15T23:11:35.861Z,100170
2022-11-15T23:16:35.875Z,100160
2022-11-15T23:21:35.863Z,100160
2022-11-15T23:26:35.867Z,100150
2022-11-15T23:31:35.891Z,100150
2022-11-15T23:36:35.868Z,100150
2022-11-15T23:41:35.871Z,100150
2022-11-15T23:46:35.908Z,100140
2022-11-15T23:51:35.891Z,100130
2022-11-15T23:56:35.890Z,100130
